Time;durP1;ratioP1;P1;durP2;ratioP2;P2;SDS_P1;SDS_P2;PMS_P1;PMS_P2;Temp;Humidity;BMP_temperature;BMP_pressure;BME280_temperature;BME280_humidity;BME280_pressure;Samples;Min_cycle;Max_cycle;Signal;HPM_P1;HPM_P2
2022/09/27 00:01:05;;;;;;;0.00;0.00;;;;;;;10.00;100.00;98169.97;5010766;28;20218;-75
2022/09/27 00:03:31;;;;;;;0.10;0.10;;;;;;;10.05;100.00;98166.91;5010623;28;20689;-76
2022/09/27 00:06:09;;;;;;;0.00;0.00;;;;;;;10.04;100.00;98171.59;5010626;28;20247;-75
2022/09/27 00:08:35;;;;;;;0.00;0.00;;;;;;;10.03;100.00;98167.28;5011029;28;20176;-76
2022/09/27 00:11:05;;;;;;;0.00;0.00;;;;;;;9.94;100.00;98164.00;5012966;28;20563;-76
2022/09/27 00:13:31;;;;;;;0.00;0.00;;;;;;;10.03;100.00;98164.56;5010551;28;20184;-76
2022/09/27 00:15:58;;;;;;;0.00;0.00;;;;;;;9.95;100.00;98171.03;4992738;28;20226;-75
2022/09/27 00:18:23;;;;;;;0.00;0.00;;;;;;;9.94;100.00;98164.00;5010647;28;20269;-76
2022/09/27 00:20:49;;;;;;;0.30;0.30;;;;;;;10.05;100.00;98156.81;5010817;28;20942;-76
2022/09/27 00:23:14;;;;;;;0.00;0.00;;;;;;;10.01;100.00;98147.78;5010689;28;20229;-76
2022/09/27 00:25:39;;;;;;;0.00;0.00;;;;;;;10.04;100.00;98147.03;5013439;28;20176;-76
2022/09/27 00:28:05;;;;;;;0.00;0.00;;;;;;;10.09;100.00;98149.44;5014406;28;20176;-76
2022/09/27 00:30:30;;;;;;;0.50;0.40;;;;;;;10.11;100.00;98149.88;5014431;28;20570;-76
2022/09/27 00:32:56;;;;;;;0.00;0.00;;;;;;;10.15;100.00;98147.22;5014262;28;20212;-76
2022/09/27 00:35:21;;;;;;;0.00;0.00;;;;;;;10.14;100.00;98151.13;5014345;28;20200;-76
2022/09/27 00:37:47;;;;;;;0.00;0.00;;;;;;;10.10;100.00;98150.25;5014326;28;20500;-75
2022/09/27 00:40:14;;;;;;;0.00;0.00;;;;;;;10.11;100.00;98147.16;5014119;28;20180;-75
2022/09/27 00:42:39;;;;;;;0.00;0.00;;;;;;;10.10;100.00;98140.13;5014046;28;20203;-76
2022/09/27 00:45:16;;;;;;;0.00;0.00;;;;;;;10.11;100.00;98140.91;5014017;28;20172;-75
2022/09/27 00:47:50;;;;;;;0.00;0.00;;;;;;;10.05;100.00;98137.69;5013722;28;20164;-76
2022/09/27 00:50:28;;;;;;;0.00;0.00;;;;;;;10.03;100.00;98133.78;4996510;28;20176;-76
2022/09/27 00:53:32;;;;;;;0.00;0.00;;;;;;;10.07;100.00;98135.41;5014050;28;20164;-75
2022/09/27 00:56:08;;;;;;;0.00;0.00;;;;;;;10.13;100.00;98128.50;4996152;28;20532;-74
2022/09/27 00:58:38;;;;;;;0.00;0.00;;;;;;;10.05;100.00;98124.06;5013870;28;20230;-75
2022/09/27 01:01:09;;;;;;;0.00;0.00;;;;;;;10.08;100.00;98123.31;5013878;28;20183;-76
2022/09/27 01:03:50;;;;;;;0.00;0.00;;;;;;;10.08;100.00;98123.31;5013618;28;20216;-76
2022/09/27 01:06:18;;;;;;;0.10;0.10;;;;;;;10.09;100.00;98124.13;5013449;28;20169;-75
2022/09/27 01:08:43;;;;;;;0.00;0.00;;;;;;;10.09;100.00;98124.13;5013608;28;20172;-76
2022/09/27 01:11:18;;;;;;;0.00;0.00;;;;;;;10.08;100.00;98123.31;5013591;28;20169;-75
2022/09/27 01:13:46;;;;;;;0.00;0.00;;;;;;;10.07;100.00;98121.75;5013621;28;20237;-76
2022/09/27 01:16:35;;;;;;;0.00;0.00;;;;;;;10.08;100.00;98122.53;5013206;28;20176;-75
2022/09/27 01:19:25;;;;;;;0.00;0.00;;;;;;;10.08;100.00;98114.34;5013553;28;20259;-75
2022/09/27 01:22:04;;;;;;;0.00;0.00;;;;;;;10.12;100.00;98121.44;5013991;28;20208;-76
2022/09/27 01:25:11;;;;;;;0.00;0.00;;;;;;;10.03;100.00;98118.19;4995697;28;20207;-75
2022/09/27 01:27:57;;;;;;;0.00;0.00;;;;;;;10.07;100.00;98116.28;4984756;28;20196;-74
2022/09/27 01:30:39;;;;;;;0.00;0.00;;;;;;;10.13;100.00;98123.03;4995630;28;20188;-75
2022/09/27 01:33:19;;;;;;;0.00;0.00;;;;;;;10.10;100.00;98120.22;5013455;28;20570;-76
2022/09/27 01:35:44;;;;;;;0.00;0.00;;;;;;;10.05;100.00;98117.81;5012373;28;20740;-75
2022/09/27 01:38:47;;;;;;;0.00;0.00;;;;;;;10.05;100.00;98115.09;5013104;28;20185;-75
2022/09/27 01:41:21;;;;;;;0.00;0.00;;;;;;;10.10;100.00;98106.59;5012786;28;20275;-75
2022/09/27 01:43:51;;;;;;;0.70;0.70;;;;;;;10.07;100.00;98110.06;5012944;28;20632;-74
2022/09/27 01:46:28;;;;;;;0.10;0.10;;;;;;;10.03;100.00;98104.53;5012757;28;20176;-76
2022/09/27 01:48:57;;;;;;;0.10;0.10;;;;;;;9.98;100.00;98098.59;5012907;28;20287;-75
2022/09/27 01:51:37;;;;;;;0.00;0.00;;;;;;;9.97;100.00;98097.81;5012755;28;20234;-75
2022/09/27 01:54:06;;;;;;;0.10;0.10;;;;;;;9.95;100.00;98102.84;5012979;28;20191;-75
2022/09/27 01:56:40;;;;;;;0.10;0.10;;;;;;;9.94;100.00;98100.47;5012690;28;20659;-76
2022/09/27 01:59:36;;;;;;;0.00;0.00;;;;;;;9.98;100.00;98104.03;4995054;28;20197;-75
2022/09/27 02:02:07;;;;;;;0.20;0.20;;;;;;;9.99;100.00;98095.53;5012677;28;20282;-75
2022/09/27 02:04:37;;;;;;;0.00;0.00;;;;;;;10.02;100.00;98094.00;5012605;28;20254;-75
2022/09/27 02:07:12;;;;;;;0.00;0.00;;;;;;;10.07;100.00;98099.13;5012310;28;20176;-75
2022/09/27 02:09:43;;;;;;;0.30;0.30;;;;;;;10.13;100.00;98100.44;5012596;28;20176;-75
2022/09/27 02:12:12;;;;;;;0.00;0.00;;;;;;;10.06;100.00;98097.56;5012353;28;20177;-76
2022/09/27 02:14:47;;;;;;;0.67;0.57;;;;;;;10.06;100.00;98092.13;5012396;28;20176;-75
2022/09/27 02:17:31;;;;;;;0.00;0.00;;;;;;;10.06;100.00;98087.44;5012219;28;20180;-76
2022/09/27 02:20:29;;;;;;;0.27;0.27;;;;;;;10.05;100.00;98096.00;5012296;28;20211;-75
2022/09/27 02:23:13;;;;;;;0.37;0.37;;;;;;;10.07;100.00;98097.19;5000778;28;20297;-75
2022/09/27 02:25:59;;;;;;;0.27;0.27;;;;;;;10.04;100.00;98086.25;5011941;28;20298;-76
2022/09/27 02:28:27;;;;;;;0.00;0.00;;;;;;;9.98;100.00;98083.03;5012155;28;20169;-75
2022/09/27 02:30:53;;;;;;;0.40;0.40;;;;;;;9.99;100.00;98086.56;5012097;28;20263;-74
2022/09/27 02:33:23;;;;;;;1.60;1.50;;;;;;;9.98;100.00;98088.50;5012085;28;20196;-75
2022/09/27 02:35:48;;;;;;;0.00;0.00;;;;;;;9.97;100.00;98078.72;5011745;28;20238;-75
2022/09/27 02:38:15;;;;;;;0.37;0.37;;;;;;;9.94;100.00;98086.84;5012218;28;20259;-74
2022/09/27 02:40:44;;;;;;;0.13;0.13;;;;;;;9.94;100.00;98093.09;5011547;28;20531;-75
2022/09/27 02:43:10;;;;;;;0.00;0.00;;;;;;;9.91;100.00;98084.84;5011962;28;20200;-75
2022/09/27 02:45:46;;;;;;;0.70;0.70;;;;;;;9.89;100.00;98085.22;5011939;28;20188;-76
2022/09/27 02:48:17;;;;;;;0.10;0.10;;;;;;;9.86;100.00;98077.00;5010881;28;20255;-75
2022/09/27 02:51:05;;;;;;;0.53;0.53;;;;;;;9.88;100.00;98075.47;4994016;28;20234;-75
2022/09/27 02:53:44;;;;;;;0.60;0.60;;;;;;;9.86;100.00;98077.00;4994049;28;20323;-75
2022/09/27 02:56:34;;;;;;;0.00;0.00;;;;;;;9.85;100.00;98081.66;5011610;28;20230;-75
2022/09/27 02:59:11;;;;;;;0.00;0.00;;;;;;;9.88;100.00;98070.00;5011630;28;20173;-75
2022/09/27 03:01:52;;;;;;;0.20;0.17;;;;;;;9.89;100.00;98082.50;5011378;28;20200;-75
2022/09/27 03:04:24;;;;;;;0.00;0.00;;;;;;;9.87;100.00;98073.09;5011526;28;20653;-75
2022/09/27 03:06:52;;;;;;;1.67;0.97;;;;;;;9.88;100.00;98070.00;4993699;28;20235;-75
2022/09/27 03:09:20;;;;;;;0.10;0.10;;;;;;;9.86;100.00;98068.81;5011495;28;20173;-75
2022/09/27 03:11:46;;;;;;;1.80;0.60;;;;;;;9.83;100.00;98073.03;5011373;28;20184;-75
2022/09/27 03:14:11;;;;;;;0.70;0.70;;;;;;;9.81;100.00;98067.94;5011271;28;20573;-76
2022/09/27 03:16:36;;;;;;;0.83;0.70;;;;;;;9.79;100.00;98064.78;5010960;28;20208;-75
2022/09/27 03:19:02;;;;;;;0.67;0.67;;;;;;;9.78;100.00;98063.22;5011216;28;20176;-75
2022/09/27 03:21:28;;;;;;;1.00;1.00;;;;;;;9.78;100.00;98059.72;5011227;28;20200;-76
2022/09/27 03:23:53;;;;;;;2.13;1.93;;;;;;;9.76;100.00;98064.75;4993465;28;20204;-76
2022/09/27 03:26:18;;;;;;;0.77;0.70;;;;;;;9.72;100.00;98067.41;5011105;28;20640;-75
2022/09/27 03:28:44;;;;;;;0.40;0.40;;;;;;;9.69;100.00;98064.59;5011178;28;20176;-75
2022/09/27 03:31:09;;;;;;;0.60;0.60;;;;;;;9.68;100.00;98069.28;5011118;28;20173;-76
2022/09/27 03:33:34;;;;;;;0.47;0.47;;;;;;;9.64;100.00;98068.44;5011773;28;20177;-75
2022/09/27 03:36:00;;;;;;;1.27;0.53;;;;;;;9.64;100.00;98062.97;5015127;28;20173;-76
2022/09/27 03:38:25;;;;;;;0.77;0.77;;;;;;;9.64;100.00;98068.44;5013782;28;20581;-75
2022/09/27 03:40:51;;;;;;;0.27;0.27;;;;;;;9.63;100.00;98071.53;5010688;28;20665;-76
2022/09/27 03:43:17;;;;;;;0.47;0.47;;;;;;;9.60;100.00;98070.31;5010907;28;20223;-75
2022/09/27 03:45:44;;;;;;;0.77;0.70;;;;;;;9.62;100.00;98064.50;4993052;28;20176;-76
2022/09/27 03:48:09;;;;;;;1.73;1.63;;;;;;;9.60;100.00;98062.13;5010882;28;20637;-75
2022/09/27 03:50:35;;;;;;;1.40;1.07;;;;;;;9.60;100.00;98064.88;5011508;28;20256;-75
2022/09/27 03:53:00;;;;;;;0.63;0.63;;;;;;;9.58;100.00;98074.56;5011057;28;20181;-75
2022/09/27 03:55:26;;;;;;;0.80;0.80;;;;;;;9.54;100.00;98055.41;5010716;28;20583;-75
2022/09/27 03:57:52;;;;;;;0.67;0.67;;;;;;;9.53;100.00;98062.00;5010729;28;20255;-75
2022/09/27 04:00:18;;;;;;;1.20;1.20;;;;;;;9.49;100.00;98061.94;4992825;28;20180;-75
2022/09/27 04:02:43;;;;;;;0.87;0.83;;;;;;;9.47;100.00;98064.25;5010524;28;20578;-75
2022/09/27 04:05:10;;;;;;;0.70;0.70;;;;;;;9.48;100.00;98059.59;5010763;28;20192;-75
2022/09/27 04:07:36;;;;;;;1.33;1.30;;;;;;;9.44;100.00;98067.72;5010292;28;20172;-75
2022/09/27 04:10:02;;;;;;;1.67;1.57;;;;;;;9.42;100.00;98066.50;4992981;28;20180;-76
2022/09/27 04:12:28;;;;;;;0.90;0.90;;;;;;;9.40;100.00;98068.78;5010757;28;20506;-75
2022/09/27 04:14:54;;;;;;;2.00;1.30;;;;;;;9.40;100.00;98069.59;5010740;28;20180;-76
2022/09/27 04:17:19;;;;;;;1.80;1.43;;;;;;;9.38;100.00;98060.97;5010097;28;20259;-75
2022/09/27 04:19:45;;;;;;;1.77;1.50;;;;;;;9.37;100.00;98064.06;5010850;28;20172;-75
2022/09/27 04:22:10;;;;;;;1.90;1.80;;;;;;;9.37;100.00;98058.59;5010301;28;20631;-75
2022/09/27 04:24:35;;;;;;;0.20;0.20;;;;;;;9.35;100.00;98060.91;5010445;28;20180;-76
2022/09/27 04:27:01;;;;;;;0.67;0.67;;;;;;;9.35;100.00;98067.13;5010286;28;20168;-76
2022/09/27 04:29:27;;;;;;;1.50;1.40;;;;;;;9.36;100.00;98067.91;5010414;28;20177;-75
2022/09/27 04:31:52;;;;;;;1.90;1.07;;;;;;;9.32;100.00;98062.41;4992629;28;20196;-76
2022/09/27 04:36:25;;;;;;;8.93;1.40;;;;;;;9.32;100.00;98059.69;5010407;28;20183;-75
2022/09/27 04:37:03;;;;;;;0.27;0.27;;;;;;;9.32;100.00;98061.63;5009806;28;20262;-75
2022/09/27 04:39:28;;;;;;;2.20;1.90;;;;;;;9.34;100.00;98062.84;5010260;28;20632;-75
2022/09/27 04:41:54;;;;;;;0.70;0.70;;;;;;;9.36;100.00;98063.25;5009887;28;20188;-76
2022/09/27 04:44:19;;;;;;;1.53;0.73;;;;;;;9.37;100.00;98064.06;5010186;28;20169;-75
2022/09/27 04:46:44;;;;;;;4.50;0.27;;;;;;;9.37;100.00;98064.84;5009886;28;20184;-74
2022/09/27 04:49:10;;;;;;;0.33;0.33;;;;;;;9.35;100.00;98067.13;5010154;28;20640;-74
2022/09/27 04:51:35;;;;;;;0.30;0.30;;;;;;;9.34;100.00;98073.75;5010293;28;20177;-75
2022/09/27 04:54:00;;;;;;;0.10;0.10;;;;;;;9.35;100.00;98071.81;5010335;28;20679;-76
2022/09/27 04:56:26;;;;;;;0.07;0.07;;;;;;;9.33;100.00;98071.38;5009880;28;20314;-76
2022/09/27 04:58:52;;;;;;;5.10;0.70;;;;;;;9.35;100.00;98069.88;5010203;28;20188;-77
2022/09/27 05:01:18;;;;;;;0.27;0.27;;;;;;;9.30;100.00;98078.34;5009967;28;20169;-76
2022/09/27 05:03:43;;;;;;;0.00;0.00;;;;;;;9.26;100.00;98082.94;5009865;28;20210;-74
2022/09/27 05:06:09;;;;;;;0.10;0.10;;;;;;;9.30;100.00;98080.28;5009866;28;20264;-74
2022/09/27 05:08:34;;;;;;;0.07;0.07;;;;;;;9.28;100.00;98091.53;5010214;28;20169;-75
2022/09/27 05:11:00;;;;;;;0.10;0.10;;;;;;;9.31;100.00;98084.56;5010288;28;20188;-75
2022/09/27 05:13:26;;;;;;;0.20;0.20;;;;;;;9.31;100.00;98099.00;5013594;28;20514;-75
2022/09/27 05:15:52;;;;;;;0.50;0.50;;;;;;;9.31;100.00;98088.09;5013594;28;20599;-74
2022/09/27 05:18:17;;;;;;;0.60;0.47;;;;;;;9.34;100.00;98094.75;4995694;28;20172;-75
2022/09/27 05:20:43;;;;;;;0.20;0.20;;;;;;;9.33;100.00;98101.34;5013316;28;20172;-76
2022/09/27 05:23:09;;;;;;;0.33;0.33;;;;;;;9.36;100.00;98106.06;5013309;28;20211;-75
2022/09/27 05:25:34;;;;;;;0.10;0.10;;;;;;;9.39;100.00;98105.34;5013333;28;20176;-75
2022/09/27 05:28:00;;;;;;;0.07;0.07;;;;;;;9.34;100.00;98106.44;5013148;28;20181;-75
2022/09/27 05:30:26;;;;;;;0.20;0.20;;;;;;;9.37;100.00;98107.66;5013214;28;20188;-76
2022/09/27 05:32:52;;;;;;;0.53;0.30;;;;;;;9.37;100.00;98113.88;5013050;28;20551;-75
2022/09/27 05:35:18;;;;;;;0.00;0.00;;;;;;;9.40;100.00;98106.91;5013093;28;20231;-77
2022/09/27 05:37:49;;;;;;;0.00;0.00;;;;;;;9.40;100.00;98113.19;4995263;28;20183;-75
2022/09/27 05:40:15;;;;;;;1.70;1.60;;;;;;;9.40;100.00;98112.38;5013046;28;20165;-75
2022/09/27 05:42:40;;;;;;;1.27;0.83;;;;;;;9.38;100.00;98118.19;5012662;28;20283;-75
2022/09/27 05:45:06;;;;;;;1.23;0.43;;;;;;;9.33;100.00;98121.22;5012948;28;20638;-75
2022/09/27 05:47:31;;;;;;;0.50;0.50;;;;;;;9.27;100.00;98114.50;5012791;28;20616;-76
2022/09/27 05:49:56;;;;;;;0.27;0.17;;;;;;;9.27;100.00;98121.88;5013078;28;20196;-75
2022/09/27 05:52:22;;;;;;;1.10;1.10;;;;;;;9.26;100.00;98112.91;5012923;28;20637;-75
2022/09/27 05:54:47;;;;;;;1.53;1.50;;;;;;;9.24;100.00;98117.91;5012874;28;20231;-75
2022/09/27 05:57:13;;;;;;;0.37;0.37;;;;;;;9.22;100.00;98114.75;5012385;28;20196;-76
2022/09/27 05:59:40;;;;;;;1.13;1.13;;;;;;;9.21;100.00;98116.69;5012574;28;20252;-75
2022/09/27 06:02:05;;;;;;;4.90;0.93;;;;;;;9.20;100.00;98117.06;5012513;28;20200;-76
2022/09/27 06:04:30;;;;;;;0.73;0.63;;;;;;;9.19;100.00;98124.44;5012725;28;20587;-77
2022/09/27 06:06:57;;;;;;;0.43;0.43;;;;;;;9.20;100.00;98119.78;5012390;28;20226;-75
2022/09/27 06:09:24;;;;;;;4.70;0.90;;;;;;;9.22;100.00;98125.66;5012441;28;20172;-75
2022/09/27 06:11:49;;;;;;;0.53;0.53;;;;;;;9.21;100.00;98126.81;5012319;28;20307;-75
2022/09/27 06:14:15;;;;;;;1.10;1.10;;;;;;;9.22;100.00;98129.16;5012344;28;20267;-75
2022/09/27 06:16:41;;;;;;;0.80;0.80;;;;;;;9.21;100.00;98121.34;5012335;28;20173;-75
2022/09/27 06:19:06;;;;;;;0.20;0.20;;;;;;;9.21;100.00;98129.53;5012183;28;20177;-76
2022/09/27 06:21:31;;;;;;;0.63;0.63;;;;;;;9.19;100.00;98126.38;5012214;28;20311;-76
2022/09/27 06:23:58;;;;;;;0.63;0.63;;;;;;;9.19;100.00;98127.16;5012156;28;20172;-75
2022/09/27 06:26:28;;;;;;;8.90;0.53;;;;;;;9.19;100.00;98129.09;5011906;28;20640;-75
2022/09/27 06:28:54;;;;;;;1.20;1.07;;;;;;;9.20;100.00;98133.41;5012009;28;20259;-75
2022/09/27 06:31:20;;;;;;;0.57;0.57;;;;;;;9.19;100.00;98132.63;5012128;28;20181;-75
2022/09/27 06:33:47;;;;;;;0.20;0.13;;;;;;;9.20;100.00;98136.13;5011989;28;20468;-75
2022/09/27 06:36:12;;;;;;;1.20;0.97;;;;;;;9.22;100.00;98139.28;4994204;28;20463;-75
2022/09/27 06:38:38;;;;;;;0.10;0.10;;;;;;;9.24;100.00;98151.38;5011888;28;20180;-77
2022/09/27 06:41:08;;;;;;;0.10;0.10;;;;;;;9.23;100.00;98157.19;5011369;28;20181;-75
2022/09/27 06:43:34;;;;;;;0.20;0.20;;;;;;;9.23;100.00;98157.19;5011825;28;20683;-75
2022/09/27 06:46:04;;;;;;;0.20;0.20;;;;;;;9.26;100.00;98161.97;5011551;28;20340;-75
2022/09/27 06:48:30;;;;;;;2.57;1.20;;;;;;;9.28;100.00;98164.31;5011810;28;20169;-75
2022/09/27 06:50:56;;;;;;;0.67;0.67;;;;;;;9.29;100.00;98174.06;5011677;28;20173;-75
2022/09/27 06:53:22;;;;;;;8.77;1.93;;;;;;;9.27;100.00;98173.66;4994060;28;20176;-76
2022/09/27 06:55:48;;;;;;;1.37;1.37;;;;;;;9.26;100.00;98178.31;5011348;28;20184;-75
2022/09/27 07:00:58;;;;;;;0.37;0.37;;;;;;;9.23;100.00;98181.72;5011572;28;20513;-74
2022/09/27 07:03:25;;;;;;;3.47;0.97;;;;;;;9.23;100.00;98179.00;5011655;28;20655;-74
2022/09/27 07:06:01;;;;;;;0.93;0.93;;;;;;;9.24;100.00;98186.81;5011079;28;20655;-74
2022/09/27 07:08:30;;;;;;;0.57;0.57;;;;;;;9.28;100.00;98194.28;5011434;28;20192;-75
2022/09/27 07:11:01;;;;;;;0.23;0.20;;;;;;;9.28;100.00;98195.09;5011353;28;20263;-75
2022/09/27 07:13:30;;;;;;;0.10;0.10;;;;;;;9.32;100.00;98201.38;5011303;28;20735;-75
2022/09/27 07:15:55;;;;;;;0.10;0.10;;;;;;;9.34;100.00;98203.75;5011107;28;20629;-75
2022/09/27 07:18:21;;;;;;;0.77;0.70;;;;;;;9.38;100.00;98207.31;5011031;28;20235;-75
2022/09/27 07:20:46;;;;;;;0.10;0.10;;;;;;;9.35;100.00;98216.22;5011454;28;20172;-75
2022/09/27 07:23:13;;;;;;;3.90;1.00;;;;;;;9.36;100.00;98220.53;5011314;28;20684;-75
2022/09/27 07:25:38;;;;;;;0.20;0.20;;;;;;;9.37;100.00;98225.63;5010977;28;20176;-75
2022/09/27 07:28:06;;;;;;;0.20;0.20;;;;;;;9.37;100.00;98222.88;5011131;28;20210;-75
2022/09/27 07:30:32;;;;;;;1.10;1.00;;;;;;;9.37;100.00;98225.63;5011069;28;20177;-75
2022/09/27 07:33:03;;;;;;;0.30;0.30;;;;;;;9.36;100.00;98225.97;5010996;28;20544;-75
2022/09/27 07:35:29;;;;;;;0.37;0.37;;;;;;;9.36;100.00;98231.44;5010632;28;20181;-74
2022/09/27 07:37:55;;;;;;;6.63;0.53;;;;;;;9.34;100.00;98233.72;5010814;28;20215;-74
2022/09/27 07:40:21;;;;;;;0.10;0.10;;;;;;;9.35;100.00;98238.03;5010958;28;20168;-74
2022/09/27 07:42:46;;;;;;;1.43;1.33;;;;;;;9.30;100.00;98238.31;4992923;28;20215;-74
2022/09/27 07:45:12;;;;;;;1.10;1.00;;;;;;;9.27;100.00;98248.00;5010897;28;20235;-75
2022/09/27 07:47:41;;;;;;;0.30;0.30;;;;;;;9.21;100.00;98246.69;4992746;28;20258;-76
2022/09/27 07:50:09;;;;;;;0.10;0.10;;;;;;;9.22;100.00;98246.31;5010744;28;20520;-75
2022/09/27 07:52:42;;;;;;;6.13;0.67;;;;;;;9.22;100.00;98254.50;5010842;28;20403;-75
2022/09/27 07:55:09;;;;;;;0.10;0.10;;;;;;;9.27;100.00;98253.44;5010555;28;20668;-74
2022/09/27 07:57:35;;;;;;;0.67;0.67;;;;;;;9.27;100.00;98250.72;5010384;28;20180;-73
2022/09/27 08:00:02;;;;;;;2.10;0.57;;;;;;;9.28;100.00;98262.41;4993153;28;20525;-75
2022/09/27 08:02:28;;;;;;;0.50;0.47;;;;;;;9.29;100.00;98275.66;5010404;28;20247;-75
2022/09/27 08:04:53;;;;;;;0.53;0.53;;;;;;;9.31;100.00;98273.38;5010643;28;20254;-76
2022/09/27 08:07:19;;;;;;;0.40;0.30;;;;;;;9.24;100.00;98268.53;5010614;28;20176;-76
2022/09/27 08:09:44;;;;;;;8.27;1.00;;;;;;;9.18;100.00;98278.16;5010518;28;20168;-76
2022/09/27 08:12:10;;;;;;;0.77;0.67;;;;;;;9.17;100.00;98283.97;5010464;28;20322;-75
2022/09/27 08:14:35;;;;;;;0.30;0.30;;;;;;;9.13;100.00;98283.88;5010582;28;20255;-75
2022/09/27 08:17:00;;;;;;;0.00;0.00;;;;;;;9.14;100.00;98285.47;5010206;28;20203;-75
2022/09/27 08:19:26;;;;;;;1.33;1.23;;;;;;;9.14;100.00;98285.47;5010576;28;20537;-76
2022/09/27 08:21:53;;;;;;;1.40;1.00;;;;;;;9.19;100.00;98284.38;5010495;28;20183;-76
2022/09/27 08:24:19;;;;;;;0.97;0.97;;;;;;;9.20;100.00;98300.38;5010373;28;20173;-76
2022/09/27 08:26:45;;;;;;;1.17;1.07;;;;;;;9.14;100.00;98296.38;5010097;28;20179;-76
2022/09/27 08:29:11;;;;;;;0.87;0.87;;;;;;;9.08;100.00;98297.75;5010552;28;20227;-75
2022/09/27 08:31:36;;;;;;;1.13;1.03;;;;;;;9.12;100.00;98304.09;5010497;28;20204;-75
2022/09/27 08:34:02;;;;;;;0.67;0.67;;;;;;;9.14;100.00;98295.56;5010453;28;20204;-75
2022/09/27 08:36:29;;;;;;;0.40;0.40;;;;;;;9.21;100.00;98304.69;5010066;28;20185;-75
2022/09/27 08:38:57;;;;;;;0.17;0.17;;;;;;;9.27;100.00;98305.22;5010358;28;20173;-76
2022/09/27 08:41:32;;;;;;;7.20;1.47;;;;;;;9.31;100.00;98316.19;5010047;28;20192;-76
2022/09/27 08:44:07;;;;;;;1.23;0.90;;;;;;;9.32;100.00;98320.50;5010272;28;20217;-75
2022/09/27 08:46:39;;;;;;;1.27;0.93;;;;;;;9.41;100.00;98327.34;4993433;28;20183;-75
2022/09/27 08:49:11;;;;;;;0.30;0.30;;;;;;;9.43;100.00;98322.31;4996306;28;20180;-74
2022/09/27 08:51:38;;;;;;;0.43;0.37;;;;;;;9.44;100.00;98328.56;4996385;28;20199;-75
2022/09/27 08:54:17;;;;;;;7.20;0.67;;;;;;;9.56;100.00;98324.91;5014057;28;20200;-74
2022/09/27 08:56:43;;;;;;;3.77;0.90;;;;;;;9.59;100.00;98337.84;5013776;28;20182;-76
2022/09/27 08:59:20;;;;;;;0.20;0.20;;;;;;;9.51;100.00;98332.22;5013889;28;20302;-76
2022/09/27 09:01:47;;;;;;;12.20;1.07;;;;;;;9.51;100.00;98340.38;4996050;28;20186;-75
2022/09/27 09:04:21;;;;;;;1.83;1.00;;;;;;;9.61;100.00;98343.72;5013652;28;20193;-75
2022/09/27 09:07:15;;;;;;;0.60;0.60;;;;;;;9.69;100.00;98351.72;5013671;28;20176;-74
2022/09/27 09:13:21;;;;;;;0.43;0.40;;;;;;;9.81;100.00;98356.22;4998240;28;20234;-75
2022/09/27 09:16:04;;;;;;;1.17;1.07;;;;;;;9.76;100.00;98356.50;4996008;28;20537;-75
2022/09/27 09:18:48;;;;;;;2.30;0.47;;;;;;;9.74;100.00;98362.31;5013945;28;20176;-74
2022/09/27 09:21:34;;;;;;;0.47;0.40;;;;;;;9.80;100.00;98360.88;5013394;28;20211;-76
2022/09/27 09:24:16;;;;;;;0.40;0.40;;;;;;;9.79;100.00;98364.75;5013419;28;20220;-75
2022/09/27 09:27:08;;;;;;;12.20;2.20;;;;;;;9.79;100.00;98372.16;4995376;28;20188;-75
2022/09/27 09:29:56;;;;;;;0.47;0.47;;;;;;;9.90;100.00;98373.19;5004934;28;20189;-75
2022/09/27 09:32:37;;;;;;;1.57;1.20;;;;;;;9.97;100.00;98376.03;5013335;28;20627;-75
2022/09/27 09:35:09;;;;;;;0.07;0.07;;;;;;;10.11;100.00;98381.78;4995674;28;20191;-75
2022/09/27 09:37:39;;;;;;;0.10;0.10;;;;;;;10.10;100.00;98377.47;5013124;28;20177;-75
2022/09/27 09:40:23;;;;;;;1.50;1.33;;;;;;;10.22;100.00;98375.78;5013013;28;20188;-74
2022/09/27 09:42:59;;;;;;;0.10;0.10;;;;;;;10.19;100.00;98381.94;5012463;28;20204;-75
2022/09/27 09:45:29;;;;;;;2.10;0.10;;;;;;;10.22;100.00;98382.03;5012854;28;20195;-75
2022/09/27 09:48:18;;;;;;;0.67;0.30;;;;;;;10.31;100.00;98379.09;5012704;28;20686;-76
2022/09/27 09:50:50;;;;;;;0.23;0.23;;;;;;;10.35;100.00;98386.22;5013053;28;20169;-74
2022/09/27 09:53:19;;;;;;;0.63;0.60;;;;;;;10.41;100.00;98383.97;5012874;28;20180;-75
2022/09/27 09:55:51;;;;;;;0.03;0.03;;;;;;;10.53;100.00;98383.03;5012749;28;20415;-74
2022/09/27 09:58:35;;;;;;;1.60;1.27;;;;;;;10.75;100.00;98384.22;5012196;28;20528;-75
2022/09/27 10:01:13;;;;;;;1.80;1.13;;;;;;;10.92;100.00;98378.28;5012738;28;20187;-76
2022/09/27 10:03:38;;;;;;;0.73;0.70;;;;;;;11.11;100.00;98383.66;4994671;28;20220;-75
2022/09/27 10:06:05;;;;;;;0.97;0.70;;;;;;;11.09;99.54;98385.97;5012416;28;20175;-73
2022/09/27 10:08:30;;;;;;;0.80;0.20;;;;;;;11.15;98.33;98376.34;4994818;28;20176;-74
2022/09/27 10:10:56;;;;;;;1.40;0.47;;;;;;;11.28;97.25;98375.00;5012619;28;20176;-75
2022/09/27 10:13:21;;;;;;;1.23;0.60;;;;;;;11.28;95.20;98380.44;5012673;28;20192;-75
2022/09/27 10:15:59;;;;;;;0.00;0.00;;;;;;;11.31;94.84;98374.25;5012266;28;20622;-74
2022/09/27 10:18:27;;;;;;;0.53;0.37;;;;;;;11.55;94.79;98364.81;4994840;28;20183;-75
2022/09/27 10:20:55;;;;;;;1.00;1.00;;;;;;;11.58;95.12;98371.53;5012456;28;20268;-74
2022/09/27 10:23:24;;;;;;;0.47;0.43;;;;;;;11.76;95.17;98379.97;5012287;28;20204;-75
2022/09/27 10:25:52;;;;;;;0.20;0.20;;;;;;;11.88;95.02;98374.31;4994531;28;20530;-75
2022/09/27 10:28:37;;;;;;;0.07;0.07;;;;;;;11.89;94.56;98376.69;5012260;28;20177;-75
2022/09/27 10:31:15;;;;;;;0.20;0.20;;;;;;;11.77;92.52;98379.59;5012321;28;20602;-75
2022/09/27 10:33:51;;;;;;;0.30;0.20;;;;;;;11.85;90.79;98384.03;4994815;28;20651;-74
2022/09/27 10:36:27;;;;;;;0.83;0.50;;;;;;;11.91;90.21;98376.31;5011942;28;20267;-74
2022/09/27 10:38:55;;;;;;;0.20;0.20;;;;;;;11.91;88.46;98385.31;5012062;28;20184;-74
2022/09/27 10:41:30;;;;;;;0.00;0.00;;;;;;;11.97;89.17;98374.81;5011409;28;20208;-74
2022/09/27 10:43:56;;;;;;;0.10;0.10;;;;;;;12.19;88.79;98384.09;4994365;28;20207;-74
2022/09/27 10:46:31;;;;;;;0.00;0.00;;;;;;;12.28;88.81;98379.09;5011614;28;20279;-75
2022/09/27 10:49:21;;;;;;;0.33;0.13;;;;;;;11.97;87.13;98380.28;5011755;28;20188;-74
2022/09/27 10:51:52;;;;;;;0.20;0.20;;;;;;;11.81;87.31;98380.47;5011734;28;20664;-74
2022/09/27 10:54:26;;;;;;;0.00;0.00;;;;;;;11.91;87.02;98382.56;5011621;28;20179;-74
2022/09/27 10:57:19;;;;;;;0.57;0.57;;;;;;;12.11;86.77;98391.41;5011420;28;20164;-73
2022/09/27 10:59:55;;;;;;;0.20;0.20;;;;;;;12.16;85.54;98385.63;5005386;28;20660;-74
2022/09/27 11:02:28;;;;;;;4.60;0.27;;;;;;;12.17;87.10;98397.38;5011583;28;20291;-75
2022/09/27 11:05:06;;;;;;;0.03;0.03;;;;;;;12.27;86.95;98388.47;5011743;28;20274;-75
2022/09/27 11:07:36;;;;;;;0.00;0.00;;;;;;;12.17;86.65;98398.16;5011250;28;20219;-75
2022/09/27 11:10:21;;;;;;;0.00;0.00;;;;;;;12.02;85.04;98392.88;5012889;28;20195;-74
2022/09/27 11:13:05;;;;;;;0.30;0.30;;;;;;;12.11;85.75;98390.63;4997151;28;20640;-74
2022/09/27 11:15:44;;;;;;;0.53;0.17;;;;;;;12.16;85.04;98391.09;4993825;28;20585;-73
2022/09/27 11:18:34;;;;;;;0.23;0.10;;;;;;;12.13;83.88;98377.34;5011310;28;20271;-73
2022/09/27 11:21:21;;;;;;;1.20;1.10;;;;;;;12.06;80.44;98382.75;5011570;28;20663;-74
2022/09/27 11:24:09;;;;;;;0.17;0.17;;;;;;;12.17;81.49;98389.16;5011309;28;20204;-74
2022/09/27 11:26:56;;;;;;;2.53;0.40;;;;;;;11.96;81.76;98378.72;5011021;28;20632;-74
2022/09/27 11:30:07;;;;;;;0.03;0.03;;;;;;;12.02;84.43;98385.44;5011436;28;20218;-76
2022/09/27 11:33:09;;;;;;;1.30;0.33;;;;;;;12.13;85.42;98396.50;4996240;28;20342;-77
2022/09/27 11:36:03;;;;;;;0.10;0.10;;;;;;;12.36;85.93;98399.94;4993713;28;20289;-76
2022/09/27 11:39:01;;;;;;;0.43;0.23;;;;;;;12.10;83.42;98395.31;5011256;28;20244;-77
2022/09/27 11:41:58;;;;;;;0.07;0.07;;;;;;;12.05;84.95;98405.81;4998952;28;20205;-76
2022/09/27 11:44:41;;;;;;;6.73;0.40;;;;;;;11.99;85.53;98407.28;5011059;28;20176;-76
2022/09/27 11:47:24;;;;;;;0.57;0.13;;;;;;;11.80;80.69;98414.47;5013662;28;20564;-74
2022/09/27 11:50:09;;;;;;;0.10;0.10;;;;;;;11.81;78.44;98405.09;5011149;28;20165;-75
2022/09/27 11:53:10;;;;;;;0.30;0.17;;;;;;;11.93;78.07;98419.72;5010912;28;20199;-77
2022/09/27 11:55:38;;;;;;;0.50;0.20;;;;;;;11.95;77.53;98426.38;4992995;28;20180;-75
2022/09/27 11:58:32;;;;;;;1.17;0.77;;;;;;;11.96;79.12;98421.72;5010631;28;20215;-76